ABL1226 RKPC-ZSPD
Flight info
| Callsign | ABL1226 |
|---|---|
| Flight time | 1h 3m |
| Altitude | 36000 |
| Route | PANSI Y711 PONIK A593 LAMEN A593 AKARA A593 PUD |
| Aircraft | A321/M-SDE3FGHIRWY/LB1 |
Departure
| Time | 2026-05-04 14:43 |
|---|---|
| Airport | Jeju International Airport (RKPC) |
Arrival
| Time | 2026-05-04 15:46 |
|---|---|
| Airport | Shanghai Pudong International Airport (ZSPD) |
| Time | Latitude | Longitude | Altitude | Speed | Heading |
|---|---|---|---|---|---|
| 2026-05-04 14:32 | 33.50808 | 126.49485 | 134 ft | 0 kts | 178° |
| 2026-05-04 14:38 | 33.50830 | 126.49484 | 134 ft | 4 kts | 178° |
| 2026-05-04 14:38 | 33.50857 | 126.49483 | 134 ft | 4 kts | 177° |
| 2026-05-04 14:38 | 33.50884 | 126.49481 | 134 ft | 4 kts | 177° |
| 2026-05-04 14:38 | 33.50911 | 126.49480 | 134 ft | 4 kts | 176° |
| 2026-05-04 14:39 | 33.50938 | 126.49478 | 134 ft | 4 kts | 175° |
| 2026-05-04 14:39 | 33.50953 | 126.49476 | 134 ft | 1 kts | 175° |
| 2026-05-04 14:39 | 33.50955 | 126.49476 | 134 ft | 0 kts | 175° |
| 2026-05-04 14:41 | 33.50950 | 126.49482 | 134 ft | 5 kts | 135° |
| 2026-05-04 14:41 | 33.51030 | 126.49584 | 133 ft | 18 kts | 38° |
| 2026-05-04 14:42 | 33.51365 | 126.49696 | 135 ft | 23 kts | 345° |
| 2026-05-04 14:42 | 33.51380 | 126.49532 | 135 ft | 39 kts | 243° |
| 2026-05-04 14:42 | 33.51087 | 126.48984 | 136 ft | 114 kts | 238° |
| 2026-05-04 14:43 | 33.50573 | 126.47962 | 227 ft | 163 kts | 239° |
| 2026-05-04 14:43 | 33.49991 | 126.46730 | 771 ft | 176 kts | 241° |
| 2026-05-04 14:43 | 33.49369 | 126.45414 | 1411 ft | 184 kts | 241° |
| 2026-05-04 14:43 | 33.48723 | 126.44080 | 2019 ft | 185 kts | 240° |
| 2026-05-04 14:44 | 33.48010 | 126.42720 | 2312 ft | 203 kts | 238° |
| 2026-05-04 14:44 | 33.47201 | 126.41223 | 2466 ft | 226 kts | 238° |
| 2026-05-04 14:44 | 33.46300 | 126.39544 | 2765 ft | 251 kts | 238° |
| 2026-05-04 14:44 | 33.45802 | 126.38610 | 3121 ft | 256 kts | 238° |
| 2026-05-04 14:45 | 33.45564 | 126.38163 | 3304 ft | 258 kts | 238° |
| 2026-05-04 14:45 | 33.45110 | 126.37305 | 3684 ft | 261 kts | 238° |
| 2026-05-04 14:45 | 33.44715 | 126.36557 | 4012 ft | 263 kts | 238° |
| 2026-05-04 14:45 | 33.43698 | 126.34759 | 4842 ft | 267 kts | 230° |
| 2026-05-04 14:46 | 33.42300 | 126.33276 | 5662 ft | 271 kts | 213° |
| 2026-05-04 14:46 | 33.40588 | 126.32325 | 6490 ft | 275 kts | 197° |
| 2026-05-04 14:46 | 33.38718 | 126.31774 | 7279 ft | 278 kts | 194° |
| 2026-05-04 14:46 | 33.36829 | 126.31234 | 8067 ft | 281 kts | 195° |
| 2026-05-04 14:47 | 33.34917 | 126.30686 | 8866 ft | 284 kts | 195° |
| 2026-05-04 14:47 | 33.32986 | 126.30127 | 9673 ft | 287 kts | 196° |
| 2026-05-04 14:47 | 33.31029 | 126.29557 | 10320 ft | 297 kts | 196° |
| 2026-05-04 14:47 | 33.28945 | 126.28948 | 10533 ft | 320 kts | 196° |
| 2026-05-04 14:48 | 33.26717 | 126.28299 | 10851 ft | 337 kts | 196° |
| 2026-05-04 14:48 | 33.24417 | 126.27635 | 11477 ft | 342 kts | 196° |
| 2026-05-04 14:48 | 33.22091 | 126.26964 | 12172 ft | 346 kts | 196° |
| 2026-05-04 14:48 | 33.19738 | 126.26286 | 12892 ft | 349 kts | 196° |
| 2026-05-04 14:49 | 33.17369 | 126.25600 | 13610 ft | 352 kts | 196° |
| 2026-05-04 14:49 | 33.14978 | 126.24907 | 14284 ft | 355 kts | 196° |
| 2026-05-04 14:49 | 33.12564 | 126.24206 | 14917 ft | 358 kts | 196° |
| 2026-05-04 14:49 | 33.10134 | 126.23503 | 15572 ft | 361 kts | 197° |
| 2026-05-04 14:50 | 33.07681 | 126.22798 | 16228 ft | 364 kts | 197° |
| 2026-05-04 14:50 | 33.05214 | 126.22088 | 16876 ft | 367 kts | 197° |
| 2026-05-04 14:50 | 33.02754 | 126.21380 | 17510 ft | 370 kts | 197° |
| 2026-05-04 14:50 | 33.00252 | 126.20624 | 18138 ft | 372 kts | 201° |
| 2026-05-04 14:51 | 32.97809 | 126.19599 | 18719 ft | 374 kts | 203° |
| 2026-05-04 14:51 | 32.95357 | 126.18540 | 19283 ft | 376 kts | 204° |
| 2026-05-04 14:51 | 32.92892 | 126.17475 | 19860 ft | 378 kts | 204° |
| 2026-05-04 14:51 | 32.90413 | 126.16405 | 20436 ft | 380 kts | 204° |
| 2026-05-04 14:52 | 32.87918 | 126.15331 | 21023 ft | 383 kts | 204° |
| 2026-05-04 14:52 | 32.85407 | 126.14253 | 21588 ft | 385 kts | 204° |
| 2026-05-04 14:52 | 32.82881 | 126.13172 | 22169 ft | 387 kts | 204° |
| 2026-05-04 14:52 | 32.80343 | 126.12092 | 22729 ft | 389 kts | 204° |
| 2026-05-04 14:53 | 32.77786 | 126.11004 | 23269 ft | 391 kts | 205° |
| 2026-05-04 14:53 | 32.75214 | 126.09905 | 23782 ft | 394 kts | 205° |
| 2026-05-04 14:53 | 32.72632 | 126.08800 | 24223 ft | 395 kts | 205° |
| 2026-05-04 14:53 | 32.70039 | 126.07691 | 24699 ft | 396 kts | 205° |
| 2026-05-04 14:54 | 32.67447 | 126.06582 | 25175 ft | 396 kts | 206° |
| 2026-05-04 14:54 | 32.64855 | 126.05478 | 25658 ft | 396 kts | 206° |
| 2026-05-04 14:54 | 32.62266 | 126.04377 | 26060 ft | 395 kts | 206° |
| 2026-05-04 14:54 | 32.59677 | 126.03276 | 26629 ft | 395 kts | 207° |
| 2026-05-04 14:55 | 32.57086 | 126.02175 | 27096 ft | 395 kts | 207° |
| 2026-05-04 14:55 | 32.54498 | 126.01076 | 27558 ft | 395 kts | 207° |
| 2026-05-04 14:55 | 32.51909 | 125.99977 | 28013 ft | 396 kts | 208° |
| 2026-05-04 14:55 | 32.49313 | 125.98875 | 28465 ft | 396 kts | 208° |
| 2026-05-04 14:56 | 32.46716 | 125.97770 | 28842 ft | 397 kts | 208° |
| 2026-05-04 14:56 | 32.44111 | 125.96659 | 29193 ft | 399 kts | 208° |
| 2026-05-04 14:56 | 32.41493 | 125.95544 | 29583 ft | 400 kts | 208° |
| 2026-05-04 14:56 | 32.38868 | 125.94431 | 29983 ft | 401 kts | 208° |
| 2026-05-04 14:57 | 32.36234 | 125.93317 | 30358 ft | 402 kts | 208° |
| 2026-05-04 14:57 | 32.33595 | 125.92201 | 30673 ft | 404 kts | 208° |
| 2026-05-04 14:57 | 32.30939 | 125.91077 | 30981 ft | 406 kts | 208° |
| 2026-05-04 14:57 | 32.28280 | 125.89955 | 31244 ft | 407 kts | 208° |
| 2026-05-04 14:58 | 32.25604 | 125.88829 | 31561 ft | 408 kts | 208° |
| 2026-05-04 14:58 | 32.22965 | 125.87719 | 31930 ft | 408 kts | 208° |
| 2026-05-04 14:58 | 32.20297 | 125.86597 | 32356 ft | 406 kts | 208° |
| 2026-05-04 14:58 | 32.17645 | 125.85487 | 32799 ft | 404 kts | 208° |
| 2026-05-04 14:59 | 32.15005 | 125.84385 | 33238 ft | 401 kts | 208° |
| 2026-05-04 14:59 | 32.12383 | 125.83287 | 33679 ft | 399 kts | 208° |
| 2026-05-04 14:59 | 32.07193 | 125.81092 | 34456 ft | 394 kts | 209° |
| 2026-05-04 15:00 | 32.04733 | 125.79789 | 34773 ft | 382 kts | 219° |
| 2026-05-04 15:00 | 32.02624 | 125.77968 | 35062 ft | 372 kts | 229° |
| 2026-05-04 15:00 | 32.00918 | 125.75725 | 35351 ft | 365 kts | 238° |
| 2026-05-04 15:01 | 31.98822 | 125.70374 | 35882 ft | 362 kts | 255° |
| 2026-05-04 15:01 | 31.98195 | 125.67502 | 36102 ft | 362 kts | 255° |
| 2026-05-04 15:01 | 31.96929 | 125.61785 | 36179 ft | 359 kts | 255° |
| 2026-05-04 15:02 | 31.95658 | 125.56115 | 36179 ft | 358 kts | 255° |
| 2026-05-04 15:02 | 31.94390 | 125.50465 | 36178 ft | 356 kts | 255° |
| 2026-05-04 15:03 | 31.93123 | 125.44814 | 36177 ft | 358 kts | 255° |
| 2026-05-04 15:03 | 31.91855 | 125.39150 | 36178 ft | 358 kts | 255° |
| 2026-05-04 15:04 | 31.90595 | 125.33516 | 36182 ft | 358 kts | 255° |
| 2026-05-04 15:04 | 31.89315 | 125.27842 | 36185 ft | 359 kts | 255° |
| 2026-05-04 15:05 | 31.88030 | 125.22166 | 36200 ft | 359 kts | 255° |
| 2026-05-04 15:05 | 31.86743 | 125.16481 | 36195 ft | 360 kts | 255° |
| 2026-05-04 15:06 | 31.85453 | 125.10785 | 36169 ft | 360 kts | 255° |
| 2026-05-04 15:07 | 31.83508 | 125.02250 | 36196 ft | 360 kts | 255° |
| 2026-05-04 15:07 | 31.82224 | 124.96563 | 36203 ft | 360 kts | 255° |
| 2026-05-04 15:08 | 31.81001 | 124.90850 | 36201 ft | 361 kts | 256° |
| 2026-05-04 15:08 | 31.79781 | 124.85128 | 36198 ft | 361 kts | 256° |
| 2026-05-04 15:09 | 31.78544 | 124.79408 | 36198 ft | 361 kts | 255° |
| 2026-05-04 15:09 | 31.77296 | 124.73690 | 36199 ft | 361 kts | 255° |
| 2026-05-04 15:10 | 31.75435 | 124.65144 | 36187 ft | 362 kts | 256° |
| 2026-05-04 15:11 | 31.73551 | 124.56561 | 36191 ft | 362 kts | 255° |
| 2026-05-04 15:11 | 31.72498 | 124.51772 | 36003 ft | 362 kts | 255° |
| 2026-05-04 15:11 | 31.71872 | 124.48915 | 35756 ft | 361 kts | 255° |
| 2026-05-04 15:12 | 31.71040 | 124.45131 | 35468 ft | 362 kts | 255° |
| 2026-05-04 15:12 | 31.70614 | 124.43196 | 35313 ft | 363 kts | 255° |
| 2026-05-04 15:12 | 31.69979 | 124.40321 | 35069 ft | 364 kts | 255° |
| 2026-05-04 15:12 | 31.69343 | 124.37444 | 34838 ft | 364 kts | 255° |
| 2026-05-04 15:13 | 31.68705 | 124.34565 | 34606 ft | 365 kts | 255° |
| 2026-05-04 15:13 | 31.68065 | 124.31678 | 34378 ft | 366 kts | 255° |
| 2026-05-04 15:13 | 31.67423 | 124.28787 | 34147 ft | 366 kts | 255° |
| 2026-05-04 15:13 | 31.66790 | 124.25939 | 33844 ft | 365 kts | 256° |
| 2026-05-04 15:14 | 31.66152 | 124.23065 | 33575 ft | 363 kts | 256° |
| 2026-05-04 15:14 | 31.65514 | 124.20200 | 33337 ft | 363 kts | 256° |
| 2026-05-04 15:14 | 31.64877 | 124.17339 | 33076 ft | 362 kts | 256° |
| 2026-05-04 15:14 | 31.64238 | 124.14482 | 32817 ft | 362 kts | 256° |
| 2026-05-04 15:15 | 31.63600 | 124.11634 | 32555 ft | 360 kts | 256° |
| 2026-05-04 15:15 | 31.62966 | 124.08795 | 32302 ft | 359 kts | 256° |
| 2026-05-04 15:15 | 31.62332 | 124.05957 | 32054 ft | 359 kts | 256° |
| 2026-05-04 15:16 | 31.61068 | 124.00318 | 31555 ft | 357 kts | 256° |
| 2026-05-04 15:16 | 31.60440 | 123.97506 | 31316 ft | 356 kts | 256° |
| 2026-05-04 15:16 | 31.59222 | 123.91893 | 30845 ft | 353 kts | 257° |
| 2026-05-04 15:17 | 31.58621 | 123.89107 | 30600 ft | 352 kts | 257° |
| 2026-05-04 15:17 | 31.57412 | 123.83562 | 30120 ft | 350 kts | 257° |
| 2026-05-04 15:17 | 31.56804 | 123.80803 | 29839 ft | 349 kts | 257° |
| 2026-05-04 15:18 | 31.56197 | 123.78046 | 29559 ft | 348 kts | 257° |
| 2026-05-04 15:18 | 31.55593 | 123.75302 | 29285 ft | 347 kts | 257° |
| 2026-05-04 15:18 | 31.54992 | 123.72564 | 29014 ft | 347 kts | 257° |
| 2026-05-04 15:19 | 31.53787 | 123.67099 | 28489 ft | 345 kts | 256° |
| 2026-05-04 15:19 | 31.53184 | 123.64376 | 28225 ft | 345 kts | 256° |
| 2026-05-04 15:19 | 31.51984 | 123.58946 | 27705 ft | 344 kts | 256° |
| 2026-05-04 15:20 | 31.51381 | 123.56235 | 27449 ft | 344 kts | 256° |
| 2026-05-04 15:20 | 31.50785 | 123.53562 | 27197 ft | 343 kts | 256° |
| 2026-05-04 15:20 | 31.50176 | 123.50817 | 26936 ft | 343 kts | 256° |
| 2026-05-04 15:20 | 31.49603 | 123.48141 | 26700 ft | 343 kts | 257° |
| 2026-05-04 15:21 | 31.49070 | 123.45420 | 26445 ft | 343 kts | 258° |
| 2026-05-04 15:21 | 31.48558 | 123.42655 | 26197 ft | 343 kts | 258° |
| 2026-05-04 15:21 | 31.47568 | 123.37247 | 25688 ft | 341 kts | 259° |
| 2026-05-04 15:22 | 31.47064 | 123.34540 | 25443 ft | 340 kts | 258° |
| 2026-05-04 15:22 | 31.46556 | 123.31844 | 25202 ft | 339 kts | 258° |
| 2026-05-04 15:22 | 31.45534 | 123.26462 | 24732 ft | 338 kts | 258° |
| 2026-05-04 15:23 | 31.45021 | 123.23782 | 24509 ft | 337 kts | 258° |
| 2026-05-04 15:23 | 31.44510 | 123.21108 | 24281 ft | 337 kts | 258° |
| 2026-05-04 15:23 | 31.43997 | 123.18430 | 24054 ft | 336 kts | 258° |
| 2026-05-04 15:23 | 31.43483 | 123.15761 | 23835 ft | 336 kts | 258° |
| 2026-05-04 15:24 | 31.42469 | 123.10508 | 23096 ft | 327 kts | 258° |
| 2026-05-04 15:24 | 31.41489 | 123.05382 | 22272 ft | 319 kts | 258° |
| 2026-05-04 15:25 | 31.41003 | 123.02859 | 21842 ft | 316 kts | 258° |
| 2026-05-04 15:25 | 31.40521 | 123.00361 | 21431 ft | 313 kts | 258° |
| 2026-05-04 15:25 | 31.40041 | 122.97884 | 21008 ft | 311 kts | 258° |
| 2026-05-04 15:26 | 31.39094 | 122.92990 | 20178 ft | 307 kts | 258° |
| 2026-05-04 15:26 | 31.38622 | 122.90564 | 19748 ft | 305 kts | 258° |
| 2026-05-04 15:26 | 31.37685 | 122.85749 | 18942 ft | 302 kts | 258° |
| 2026-05-04 15:27 | 31.37218 | 122.83348 | 18522 ft | 302 kts | 258° |
| 2026-05-04 15:27 | 31.36278 | 122.78578 | 17671 ft | 300 kts | 255° |
| 2026-05-04 15:28 | 31.34522 | 122.74172 | 16851 ft | 299 kts | 243° |
| 2026-05-04 15:28 | 31.33519 | 122.72043 | 16455 ft | 299 kts | 243° |
| 2026-05-04 15:28 | 31.31517 | 122.67791 | 15651 ft | 298 kts | 243° |
| 2026-05-04 15:29 | 31.30521 | 122.65666 | 15261 ft | 298 kts | 243° |
| 2026-05-04 15:30 | 31.29295 | 122.56643 | 14630 ft | 296 kts | 284° |
| 2026-05-04 15:30 | 31.30829 | 122.49655 | 14440 ft | 296 kts | 284° |
| 2026-05-04 15:31 | 31.31850 | 122.44994 | 14316 ft | 296 kts | 284° |
| 2026-05-04 15:31 | 31.32357 | 122.42661 | 14259 ft | 296 kts | 284° |
| 2026-05-04 15:32 | 31.33870 | 122.35662 | 14066 ft | 296 kts | 284° |
| 2026-05-04 15:32 | 31.34874 | 122.31004 | 13718 ft | 294 kts | 284° |
| 2026-05-04 15:33 | 31.35867 | 122.26387 | 12982 ft | 291 kts | 284° |
| 2026-05-04 15:34 | 31.37336 | 122.19552 | 11894 ft | 286 kts | 284° |
| 2026-05-04 15:34 | 31.37820 | 122.17297 | 11533 ft | 285 kts | 285° |
| 2026-05-04 15:34 | 31.38782 | 122.12820 | 10819 ft | 282 kts | 285° |
| 2026-05-04 15:35 | 31.39740 | 122.08383 | 10254 ft | 281 kts | 285° |
| 2026-05-04 15:35 | 31.40215 | 122.06159 | 10122 ft | 283 kts | 285° |
| 2026-05-04 15:35 | 31.40692 | 122.03923 | 9973 ft | 284 kts | 285° |
| 2026-05-04 15:36 | 31.41648 | 121.99411 | 8722 ft | 280 kts | 285° |
| 2026-05-04 15:36 | 31.42113 | 121.97217 | 8005 ft | 275 kts | 285° |
| 2026-05-04 15:36 | 31.42573 | 121.95061 | 7386 ft | 271 kts | 285° |
| 2026-05-04 15:37 | 31.43026 | 121.92934 | 6814 ft | 268 kts | 285° |
| 2026-05-04 15:37 | 31.43462 | 121.90883 | 6494 ft | 252 kts | 285° |
| 2026-05-04 15:37 | 31.43863 | 121.88986 | 6440 ft | 232 kts | 285° |
| 2026-05-04 15:37 | 31.44236 | 121.87214 | 6400 ft | 217 kts | 285° |
| 2026-05-04 15:38 | 31.44593 | 121.85528 | 6323 ft | 212 kts | 285° |
| 2026-05-04 15:38 | 31.44849 | 121.83826 | 6241 ft | 213 kts | 274° |
| 2026-05-04 15:38 | 31.44737 | 121.82093 | 5934 ft | 215 kts | 259° |
| 2026-05-04 15:38 | 31.44413 | 121.80383 | 5363 ft | 214 kts | 258° |
| 2026-05-04 15:39 | 31.44088 | 121.78687 | 4817 ft | 212 kts | 258° |
| 2026-05-04 15:39 | 31.43766 | 121.77015 | 4292 ft | 209 kts | 257° |
| 2026-05-04 15:39 | 31.42401 | 121.74158 | 4069 ft | 203 kts | 222° |
| 2026-05-04 15:40 | 31.41201 | 121.73282 | 3971 ft | 205 kts | 204° |
| 2026-05-04 15:40 | 31.39800 | 121.72905 | 3535 ft | 211 kts | 184° |
| 2026-05-04 15:40 | 31.38342 | 121.73162 | 3169 ft | 214 kts | 165° |
| 2026-05-04 15:40 | 31.36936 | 121.73696 | 2831 ft | 212 kts | 165° |
| 2026-05-04 15:41 | 31.35544 | 121.74228 | 2502 ft | 209 kts | 165° |
| 2026-05-04 15:41 | 31.34176 | 121.74747 | 2190 ft | 205 kts | 165° |
| 2026-05-04 15:41 | 31.32840 | 121.75254 | 2023 ft | 199 kts | 165° |
| 2026-05-04 15:41 | 31.31539 | 121.75746 | 2005 ft | 196 kts | 165° |
| 2026-05-04 15:42 | 31.30243 | 121.76237 | 2007 ft | 195 kts | 165° |
| 2026-05-04 15:42 | 31.28975 | 121.76718 | 2023 ft | 181 kts | 165° |
| 2026-05-04 15:42 | 31.27878 | 121.77135 | 2027 ft | 157 kts | 166° |
| 2026-05-04 15:42 | 31.26905 | 121.77504 | 2027 ft | 141 kts | 166° |
| 2026-05-04 15:43 | 31.25986 | 121.77850 | 1966 ft | 137 kts | 167° |
| 2026-05-04 15:43 | 31.25085 | 121.78190 | 1841 ft | 135 kts | 167° |
| 2026-05-04 15:43 | 31.24196 | 121.78526 | 1685 ft | 134 kts | 166° |
| 2026-05-04 15:43 | 31.23307 | 121.78861 | 1512 ft | 134 kts | 166° |
| 2026-05-04 15:44 | 31.22421 | 121.79196 | 1347 ft | 133 kts | 165° |
| 2026-05-04 15:44 | 31.21541 | 121.79529 | 1166 ft | 133 kts | 165° |
| 2026-05-04 15:44 | 31.20666 | 121.79859 | 996 ft | 132 kts | 165° |
| 2026-05-04 15:44 | 31.19788 | 121.80191 | 814 ft | 136 kts | 163° |
| 2026-05-04 15:45 | 31.18902 | 121.80526 | 645 ft | 133 kts | 162° |
| 2026-05-04 15:45 | 31.18019 | 121.80865 | 472 ft | 134 kts | 161° |
| 2026-05-04 15:45 | 31.17132 | 121.81217 | 278 ft | 135 kts | 162° |
| 2026-05-04 15:45 | 31.16234 | 121.81555 | 117 ft | 136 kts | 162° |
| 2026-05-04 15:46 | 31.15371 | 121.81866 | 24 ft | 111 kts | 162° |
| 2026-05-04 15:46 | 31.14800 | 121.82080 | 21 ft | 62 kts | 162° |
| 2026-05-04 15:46 | 31.14467 | 121.82198 | 23 ft | 35 kts | 172° |
| 2026-05-04 15:46 | 31.14325 | 121.82172 | 23 ft | 15 kts | 191° |
| 2026-05-04 15:47 | 31.14253 | 121.82103 | 23 ft | 15 kts | 279° |
| 2026-05-04 15:47 | 31.14342 | 121.82042 | 23 ft | 16 kts | 343° |
| 2026-05-04 15:47 | 31.14456 | 121.81999 | 22 ft | 18 kts | 342° |
| 2026-05-04 15:47 | 31.14584 | 121.81952 | 23 ft | 20 kts | 342° |
| 2026-05-04 15:48 | 31.14723 | 121.81900 | 24 ft | 22 kts | 342° |
| 2026-05-04 15:48 | 31.14873 | 121.81841 | 22 ft | 24 kts | 341° |
| 2026-05-04 15:48 | 31.14959 | 121.81660 | 22 ft | 15 kts | 248° |
| 2026-05-04 15:49 | 31.14922 | 121.81538 | 22 ft | 17 kts | 251° |
| 2026-05-04 15:49 | 31.14884 | 121.81402 | 25 ft | 18 kts | 252° |
| 2026-05-04 15:49 | 31.14845 | 121.81256 | 23 ft | 20 kts | 253° |
| 2026-05-04 15:49 | 31.14804 | 121.81099 | 23 ft | 20 kts | 261° |
| 2026-05-04 15:50 | 31.14856 | 121.81017 | 23 ft | 14 kts | 348° |
| 2026-05-04 15:50 | 31.14957 | 121.80990 | 24 ft | 16 kts | 342° |
| 2026-05-04 15:50 | 31.15067 | 121.80945 | 23 ft | 18 kts | 341° |
| 2026-05-04 15:50 | 31.15149 | 121.80915 | 23 ft | 1 kts | 342° |
| 2026-05-04 15:51 | 31.15161 | 121.80911 | 24 ft | 3 kts | 341° |
| 2026-05-04 15:51 | 31.15178 | 121.80890 | 25 ft | 4 kts | 297° |
| 2026-05-04 15:51 | 31.15172 | 121.80853 | 23 ft | 6 kts | 250° |
| 2026-05-04 15:51 | 31.15157 | 121.80804 | 23 ft | 0 kts | 252° |